CDT,Max TemperatureF,Mean TemperatureF,Min TemperatureF,Max Dew PointF,MeanDew PointF,Min DewpointF,Max Humidity, Mean Humidity, Min Humidity, Max Sea Level PressureIn, Mean Sea Level PressureIn, Min Sea Level PressureIn, Max VisibilityMiles, Mean VisibilityMiles, Min VisibilityMiles, Max Wind SpeedMPH, Mean Wind SpeedMPH, Max Gust SpeedMPH,PrecipitationIn, CloudCover, Events, WindDirDegrees
2012-10-1,60,58,55,57,53,50,100,86,68,29.82,29.74,29.66,10,9,2,15,8,24,0.19,5,Rain,10
2012-10-2,57,55,53,57,55,52,100,96,88,29.92,29.80,29.70,10,7,1,10,7,,0.01,8,Rain,302
2012-10-3,77,65,53,59,55,52,100,75,41,30.12,30.02,29.92,10,9,3,15,6,24,0.31,3,Rain-Thunderstorm,198
2012-10-4,78,66,55,61,58,54,100,80,42,30.22,30.16,30.13,10,9,2,15,3,18,0.00,1,,214
2012-10-5,62,52,42,59,49,43,100,88,68,30.19,30.14,30.05,10,10,4,14,5,22,0.24,4,Rain-Thunderstorm,356
2012-10-6,55,45,35,43,36,32,100,72,44,30.25,30.21,30.17,10,10,10,10,5,16,0.00,3,Rain,331
2012-10-7,55,48,41,41,35,32,93,64,44,30.26,30.22,30.18,10,10,10,10,6,16,0.00,3,,322
2012-10-8,60,48,37,43,37,32,100,71,34,30.26,30.19,30.12,10,10,7,8,1,,0.00,0,,217
2012-10-9,64,50,35,46,41,36,100,76,42,30.14,30.06,29.97,10,9,3,15,3,21,0.00,0,,210
2012-10-10,57,47,35,48,37,28,93,63,36,30.27,30.18,29.99,10,10,10,18,6,26,0.00,3,,313
2012-10-11,62,47,32,45,36,32,100,65,36,30.29,30.24,30.18,10,10,7,12,2,,0.00,3,Thunderstorm,192
2012-10-12,64,57,50,54,51,48,100,86,59,30.35,30.27,30.21,10,8,2,9,3,9,0.32,2,Rain-Thunderstorm,87
2012-10-13,78,63,48,66,59,48,100,82,54,30.25,30.09,29.90,10,8,1,18,6,26,0.00,3,,174
2012-10-14,73,64,55,64,60,54,100,77,61,29.93,29.84,29.75,10,10,2,28,17,37,0.29,4,Rain,221
2012-10-15,69,58,46,55,48,43,100,77,40,30.03,29.98,29.94,10,9,7,13,5,16,0.00,0,,296
2012-10-16,78,60,42,54,49,43,100,69,36,29.99,29.86,29.73,10,10,3,15,4,20,0.00,0,,183
2012-10-17,77,68,57,61,53,48,100,64,41,29.76,29.62,29.39,10,10,3,28,13,34,0.65,3,Rain-Thunderstorm,196
2012-10-18,64,56,48,55,41,30,94,61,28,29.69,29.65,29.57,10,10,10,23,10,40,0.00,1,,232
2012-10-19,55,50,46,46,42,36,93,70,51,29.81,29.68,29.58,10,10,7,17,8,23,0.11,6,Rain,244
2012-10-20,62,53,44,46,45,43,100,78,52,29.97,29.90,29.81,10,10,10,10,4,,0.00,4,,243
2012-10-21,77,60,44,61,53,45,100,73,46,30.02,29.99,29.96,10,10,7,13,4,17,0.00,2,,161
2012-10-22,80,70,59,61,53,45,82,57,30,30.06,30.03,29.99,10,10,10,25,8,34,0.00,2,Thunderstorm,187
2012-10-23,80,70,60,59,54,50,73,58,42,30.05,30.00,29.95,10,10,10,16,7,23,0.00,0,,199
2012-10-24,80,70,60,61,58,54,88,69,51,30.07,30.01,29.96,10,10,10,16,7,24,0.00,1,,196
2012-10-25,80,66,50,61,58,45,88,70,51,30.11,29.94,29.88,10,10,10,24,9,37,0.00,2,Rain,198
2012-10-26,48,44,41,45,38,34,100,79,66,30.28,30.21,30.10,10,9,2,16,11,24,0.39,6,Rain,352
2012-10-27,53,44,35,36,34,32,87,68,47,30.23,30.19,30.14,10,10,10,16,10,25,0.00,0,,355
2012-10-28,53,45,37,36,34,32,87,68,47,30.20,30.18,30.15,10,10,10,17,9,23,0.00,1,,353
2012-10-29,55,45,35,34,31,28,87,62,36,30.24,30.17,30.03,10,10,10,18,9,26,0.00,0,,338
2012-10-30,55,46,37,30,27,21,75,51,26,30.03,29.90,29.82,10,10,10,25,12,34,0.00,0,,308
2012-10-31,53,42,32,32,28,23,87,61,30,29.97,29.92,29.88,10,10,10,15,7,23,0.00,0,,298